createdAt,value
2023-05-02T00:01:20.369Z,97299.66
2023-05-02T00:03:23.113Z,97306.75
2023-05-02T00:05:25.812Z,97299.03
2023-05-02T00:07:28.724Z,97293.03
2023-05-02T00:09:31.347Z,97304.38
2023-05-02T00:11:33.957Z,97296.75
2023-05-02T00:13:36.532Z,97299.38
2023-05-02T00:15:40.501Z,97300.34
2023-05-02T00:17:43.621Z,97296.97
2023-05-02T00:19:46.313Z,97298.72
2023-05-02T00:21:49.810Z,97298.84
2023-05-02T00:23:52.481Z,97296.09
2023-05-02T00:25:55.056Z,97296.25
2023-05-02T00:27:57.624Z,97294.47
2023-05-02T00:30:00.991Z,97290.09
2023-05-02T00:32:06.522Z,97297.94
2023-05-02T00:34:09.103Z,97294.59
2023-05-02T00:36:15.648Z,97295.53
2023-05-02T00:38:18.205Z,97295.59
2023-05-02T00:40:21.022Z,97294.88
2023-05-02T00:42:23.625Z,97294.91
2023-05-02T00:44:26.188Z,97295.91
2023-05-02T00:46:28.906Z,97291.59
2023-05-02T00:48:33.009Z,97302.09
2023-05-02T00:50:37.269Z,97293.44
2023-05-02T00:52:39.834Z,97296.88
2023-05-02T00:54:43.212Z,97302.16
2023-05-02T00:56:46.436Z,97302.22
2023-05-02T00:58:49.092Z,97297.00
2023-05-02T01:01:05.948Z,97298.81
2023-05-02T01:03:18.460Z,97300.72
2023-05-02T01:05:28.949Z,97303.31
2023-05-02T01:07:48.053Z,97308.63
2023-05-02T01:10:02.533Z,97310.41
2023-05-02T01:12:11.404Z,97305.28
2023-05-02T01:14:16.085Z,97311.44
2023-05-02T01:16:21.264Z,97309.59
2023-05-02T01:18:25.753Z,97313.91
2023-05-02T01:20:31.753Z,97325.28
2023-05-02T01:22:35.672Z,97325.22
2023-05-02T01:24:49.949Z,97330.50
2023-05-02T01:27:02.867Z,97324.34
2023-05-02T01:29:09.454Z,97322.53
2023-05-02T01:31:13.201Z,97322.53
2023-05-02T01:33:18.265Z,97326.91
2023-05-02T01:35:23.274Z,97320.84
2023-05-02T01:37:28.505Z,97328.63
2023-05-02T01:39:32.102Z,97325.34
2023-05-02T01:41:36.744Z,97326.31
2023-05-02T01:43:41.318Z,97331.41
2023-05-02T01:45:48.235Z,97324.63
2023-05-02T01:47:51.797Z,97327.34
2023-05-02T01:49:54.461Z,97326.56
2023-05-02T01:51:58.092Z,97326.66
2023-05-02T01:54:04.201Z,97329.34
2023-05-02T01:56:07.544Z,97331.97
2023-05-02T01:58:11.471Z,97332.94
2023-05-02T02:00:17.322Z,97327.75
2023-05-02T02:02:22.386Z,97325.16
2023-05-02T02:04:26.949Z,97333.13
2023-05-02T02:06:29.656Z,97327.00
2023-05-02T02:08:32.237Z,97325.34
2023-05-02T02:10:41.148Z,97329.72
2023-05-02T02:12:48.495Z,97328.16
2023-05-02T02:14:57.135Z,97328.97
2023-05-02T02:17:02.790Z,97329.84
2023-05-02T02:19:11.249Z,97336.81
2023-05-02T02:21:18.922Z,97338.59
2023-05-02T02:23:24.453Z,97342.22
2023-05-02T02:25:28.361Z,97331.00
2023-05-02T02:27:31.145Z,97334.41
2023-05-02T02:29:33.947Z,97331.91
2023-05-02T02:31:39.121Z,97331.97
2023-05-02T02:33:42.118Z,97325.03
2023-05-02T02:35:59.468Z,97333.19
2023-05-02T02:38:15.323Z,97334.34
2023-05-02T02:40:22.914Z,97336.28
2023-05-02T02:42:36.112Z,97333.81
2023-05-02T02:44:47.137Z,97344.19
2023-05-02T02:47:00.905Z,97350.41
2023-05-02T02:49:16.231Z,97347.06
2023-05-02T02:51:29.136Z,97354.09
2023-05-02T02:53:41.986Z,97350.63
2023-05-02T02:55:48.685Z,97357.50
2023-05-02T02:58:00.262Z,97357.56
2023-05-02T03:00:10.766Z,97362.91
2023-05-02T03:02:16.074Z,97357.69
2023-05-02T03:04:21.454Z,97360.28
2023-05-02T03:06:26.096Z,97364.56
2023-05-02T03:08:28.762Z,97369.31
2023-05-02T03:10:31.329Z,97385.84
2023-05-02T03:12:34.415Z,97391.19
2023-05-02T03:14:37.286Z,97393.84
2023-05-02T03:16:41.483Z,97387.78
2023-05-02T03:18:44.204Z,97396.50
2023-05-02T03:20:46.964Z,97397.47
2023-05-02T03:22:50.897Z,97401.81
2023-05-02T03:24:53.510Z,97405.41
2023-05-02T03:26:56.730Z,97408.16
2023-05-02T03:28:59.597Z,97410.06
2023-05-02T03:31:02.344Z,97404.09
2023-05-02T03:33:07.905Z,97407.66
2023-05-02T03:35:10.925Z,97402.50
2023-05-02T03:37:13.521Z,97405.94
2023-05-02T03:39:17.549Z,97409.47
2023-05-02T03:41:20.941Z,97414.75
2023-05-02T03:43:23.589Z,97421.75
2023-05-02T03:45:26.149Z,97420.91
2023-05-02T03:47:28.732Z,97423.56
2023-05-02T03:49:31.335Z,97433.25
2023-05-02T03:51:35.605Z,97435.78
2023-05-02T03:53:38.351Z,97449.69
2023-05-02T03:55:42.759Z,97453.09
2023-05-02T03:57:45.327Z,97440.88
2023-05-02T03:59:48.149Z,97442.63
2023-05-02T04:01:51.137Z,97439.06
2023-05-02T04:03:53.853Z,97448.44
2023-05-02T04:05:56.455Z,97456.44
2023-05-02T04:07:59.031Z,97459.19
2023-05-02T04:10:01.918Z,97467.00
2023-05-02T04:12:06.266Z,97469.50
2023-05-02T04:14:08.907Z,97470.34
2023-05-02T04:16:11.505Z,97469.44
2023-05-02T04:18:14.091Z,97475.47
2023-05-02T04:20:16.737Z,97476.22
2023-05-02T04:22:19.323Z,97480.47
2023-05-02T04:24:23.263Z,97480.44
2023-05-02T04:26:25.931Z,97481.22
2023-05-02T04:28:29.905Z,97480.28
2023-05-02T04:30:32.609Z,97481.13
2023-05-02T04:32:35.237Z,97481.88
2023-05-02T04:34:37.869Z,97490.72
2023-05-02T04:36:40.457Z,97493.25
2023-05-02T04:38:43.138Z,97490.66
2023-05-02T04:40:45.936Z,97499.22
2023-05-02T04:42:48.499Z,97488.69
2023-05-02T04:44:52.391Z,97499.97
2023-05-02T04:46:57.788Z,97506.78
2023-05-02T04:49:00.345Z,97505.00
2023-05-02T04:51:03.023Z,97505.81
2023-05-02T04:53:05.618Z,97499.72
2023-05-02T04:55:09.017Z,97510.19
2023-05-02T04:57:11.572Z,97510.16
2023-05-02T04:59:14.201Z,97504.00
2023-05-02T05:01:18.171Z,97505.50
2023-05-02T05:03:20.889Z,97508.25
2023-05-02T05:05:23.493Z,97509.88
2023-05-02T05:07:26.401Z,97510.59
2023-05-02T05:09:28.933Z,97514.34
2023-05-02T05:11:31.765Z,97521.28
2023-05-02T05:13:34.417Z,97513.38
2023-05-02T05:15:36.957Z,97509.91
2023-05-02T05:17:40.908Z,97515.03
2023-05-02T05:19:43.485Z,97517.53
2023-05-02T05:21:46.099Z,97513.03
2023-05-02T05:23:48.657Z,97515.56
2023-05-02T05:25:51.328Z,97511.91
2023-05-02T05:27:55.807Z,97513.59
2023-05-02T05:29:58.612Z,97517.88
2023-05-02T05:32:01.450Z,97514.31
2023-05-02T05:34:05.485Z,97515.13
2023-05-02T05:36:08.843Z,97519.50
2023-05-02T05:38:11.464Z,97517.56
2023-05-02T05:40:14.389Z,97526.31
2023-05-02T05:42:16.988Z,97532.41
2023-05-02T05:44:21.718Z,97532.41
2023-05-02T05:46:24.450Z,97540.19
2023-05-02T05:48:27.221Z,97533.03
2023-05-02T05:50:31.150Z,97538.38
2023-05-02T05:52:33.725Z,97532.22
2023-05-02T05:54:36.320Z,97540.03
2023-05-02T05:56:38.877Z,97544.22
2023-05-02T05:58:42.715Z,97544.19
2023-05-02T06:00:45.308Z,97545.72
2023-05-02T06:02:47.976Z,97552.59
2023-05-02T06:04:50.686Z,97563.84
2023-05-02T06:06:55.262Z,97568.09
2023-05-02T06:08:57.926Z,97576.72
2023-05-02T06:11:00.574Z,97573.25
2023-05-02T06:13:03.139Z,97578.53
2023-05-02T06:15:06.654Z,97579.44
2023-05-02T06:17:09.244Z,97587.16
2023-05-02T06:19:11.814Z,97588.47
2023-05-02T06:21:15.416Z,97590.34
2023-05-02T06:23:19.372Z,97596.47
2023-05-02T06:25:22.026Z,97599.94
2023-05-02T06:27:24.608Z,97596.34
2023-05-02T06:29:27.157Z,97602.31
2023-05-02T06:31:29.803Z,97596.22
2023-05-02T06:33:33.705Z,97610.00
2023-05-02T06:35:36.331Z,97596.84
2023-05-02T06:37:38.908Z,97600.13
2023-05-02T06:39:42.810Z,97608.91
2023-05-02T06:41:45.358Z,97601.94
2023-05-02T06:43:47.925Z,97603.41
2023-05-02T06:45:54.008Z,97614.72
2023-05-02T06:47:56.603Z,97616.97
2023-05-02T06:49:59.321Z,97613.00
2023-05-02T06:52:02.051Z,97619.38
2023-05-02T06:54:04.689Z,97619.66
2023-05-02T06:56:09.056Z,97624.06
2023-05-02T06:58:11.668Z,97626.13
2023-05-02T07:00:15.891Z,97626.25
2023-05-02T07:02:18.465Z,97627.16
2023-05-02T07:04:21.065Z,97637.25
2023-05-02T07:06:23.651Z,97631.97
2023-05-02T07:08:26.339Z,97633.56
2023-05-02T07:10:28.941Z,97636.44
2023-05-02T07:12:32.869Z,97643.41
2023-05-02T07:14:35.435Z,97645.38
2023-05-02T07:16:38.089Z,97639.75
2023-05-02T07:18:40.779Z,97639.75
2023-05-02T07:20:43.345Z,97646.75
2023-05-02T07:22:45.909Z,97640.59
2023-05-02T07:24:48.602Z,97638.00
2023-05-02T07:26:51.194Z,97651.06
2023-05-02T07:28:55.132Z,97647.94
2023-05-02T07:30:57.729Z,97645.66
2023-05-02T07:33:00.420Z,97646.91
2023-05-02T07:35:02.993Z,97646.13
2023-05-02T07:37:05.689Z,97647.88
2023-05-02T07:39:08.267Z,97653.09
2023-05-02T07:41:10.884Z,97661.94
2023-05-02T07:43:15.979Z,97650.09
2023-05-02T07:45:20.206Z,97654.34
2023-05-02T07:47:22.873Z,97645.84
2023-05-02T07:49:25.579Z,97649.78
2023-05-02T07:51:28.218Z,97666.00
2023-05-02T07:53:30.833Z,97662.97
2023-05-02T07:55:33.445Z,97663.03
2023-05-02T07:57:35.997Z,97662.19
2023-05-02T07:59:39.828Z,97664.53
2023-05-02T08:01:44.261Z,97664.66
2023-05-02T08:03:47.713Z,97662.06
2023-05-02T08:05:50.356Z,97670.41
2023-05-02T08:07:52.985Z,97666.94
2023-05-02T08:09:55.690Z,97672.28
2023-05-02T08:11:58.343Z,97672.16
2023-05-02T08:14:00.945Z,97669.69
2023-05-02T08:16:03.665Z,97672.22
2023-05-02T08:18:07.756Z,97670.28
2023-05-02T08:20:11.020Z,97682.38
2023-05-02T08:22:13.643Z,97688.72
2023-05-02T08:24:16.220Z,97685.25
2023-05-02T08:26:19.053Z,97690.34
2023-05-02T08:28:21.630Z,97693.06
2023-05-02T08:30:24.540Z,97696.50
2023-05-02T08:32:27.662Z,97693.16
2023-05-02T08:34:33.739Z,97702.66
2023-05-02T08:36:37.252Z,97698.81
2023-05-02T08:38:39.901Z,97695.84
2023-05-02T08:40:43.435Z,97700.59
2023-05-02T08:42:47.216Z,97700.31
2023-05-02T08:44:49.942Z,97703.06
2023-05-02T08:46:55.280Z,97702.66
2023-05-02T08:48:59.805Z,97699.19
2023-05-02T08:51:04.337Z,97700.19
2023-05-02T08:53:07.713Z,97702.06
2023-05-02T08:55:11.652Z,97709.94
2023-05-02T08:57:14.259Z,97708.97
2023-05-02T08:59:16.813Z,97710.66
2023-05-02T09:01:23.521Z,97708.50
2023-05-02T09:03:31.364Z,97713.94
2023-05-02T09:05:40.697Z,97713.00
2023-05-02T09:07:49.423Z,97720.78
2023-05-02T09:09:52.160Z,97724.25
2023-05-02T09:11:54.950Z,97726.81
2023-05-02T09:13:58.964Z,97722.50
2023-05-02T09:16:03.242Z,97722.50
2023-05-02T09:18:06.032Z,97724.66
2023-05-02T09:20:10.054Z,97723.47
2023-05-02T09:22:12.803Z,97727.28
2023-05-02T09:24:18.624Z,97731.56
2023-05-02T09:26:22.395Z,97727.22
2023-05-02T09:28:39.655Z,97721.13
2023-05-02T09:30:42.387Z,97731.44
2023-05-02T09:32:51.191Z,97721.50
2023-05-02T09:35:06.534Z,97727.34
2023-05-02T09:37:10.346Z,97723.34
2023-05-02T09:39:14.560Z,97729.16
2023-05-02T09:41:19.946Z,97727.13
2023-05-02T09:43:22.697Z,97722.56
2023-05-02T09:45:26.615Z,97727.16
2023-05-02T09:47:29.274Z,97726.88
2023-05-02T09:49:42.156Z,97719.09
2023-05-02T09:51:44.769Z,97730.66
2023-05-02T09:53:48.018Z,97726.28
2023-05-02T09:56:01.086Z,97727.25
2023-05-02T09:58:05.924Z,97722.63
2023-05-02T10:00:10.382Z,97727.72
2023-05-02T10:02:13.460Z,97731.16
2023-05-02T10:04:16.954Z,97726.19
2023-05-02T10:06:20.465Z,97733.56
2023-05-02T10:08:28.410Z,97726.03
2023-05-02T10:10:33.930Z,97714.03
2023-05-02T10:12:38.819Z,97718.28
2023-05-02T10:14:50.137Z,97717.03
2023-05-02T10:16:59.403Z,97713.47
2023-05-02T10:19:08.580Z,97717.63
2023-05-02T10:21:12.691Z,97716.03
2023-05-02T10:23:16.651Z,97709.88
2023-05-02T10:25:19.987Z,97705.47
2023-05-02T10:27:25.684Z,97710.44
2023-05-02T10:29:30.109Z,97711.22
2023-05-02T10:31:37.577Z,97716.78
2023-05-02T10:33:40.809Z,97711.75
2023-05-02T10:35:46.571Z,97716.06
2023-05-02T10:37:50.139Z,97714.63
2023-05-02T10:39:53.057Z,97714.09
2023-05-02T10:41:57.457Z,97710.66
2023-05-02T10:44:02.108Z,97708.50
2023-05-02T10:46:04.952Z,97706.22
2023-05-02T10:48:20.094Z,97711.31
2023-05-02T10:50:22.763Z,97702.59
2023-05-02T10:52:32.924Z,97698.66
2023-05-02T10:54:35.969Z,97702.56
2023-05-02T10:57:09.339Z,97694.69
2023-05-02T10:59:30.034Z,97699.78
2023-05-02T11:01:39.832Z,97691.84
2023-05-02T11:03:56.443Z,97694.69
2023-05-02T11:06:08.199Z,97694.75
2023-05-02T11:08:28.392Z,97696.56
2023-05-02T11:10:31.424Z,97701.25
2023-05-02T11:12:49.150Z,97694.72
2023-05-02T11:14:51.828Z,97694.50
2023-05-02T11:17:10.389Z,97693.81
2023-05-02T11:19:12.947Z,97695.50
2023-05-02T11:21:29.779Z,97697.41
2023-05-02T11:23:32.514Z,97698.28
2023-05-02T11:25:43.465Z,97695.41
2023-05-02T11:29:55.125Z,97700.88
2023-05-02T11:31:57.772Z,97696.66
2023-05-02T11:34:01.355Z,97697.41
2023-05-02T11:36:04.290Z,97691.78
2023-05-02T11:38:12.413Z,97695.09
2023-05-02T11:40:16.086Z,97682.97
2023-05-02T11:42:32.282Z,97689.69
2023-05-02T11:44:56.574Z,97694.25
2023-05-02T11:46:59.176Z,97685.16
2023-05-02T11:49:02.183Z,97692.50
2023-05-02T11:51:07.049Z,97683.28
2023-05-02T11:53:12.100Z,97685.22
2023-05-02T11:55:16.410Z,97688.00
2023-05-02T11:57:19.049Z,97693.81
2023-05-02T11:59:21.650Z,97693.88
2023-05-02T12:01:25.641Z,97689.09
2023-05-02T12:03:30.928Z,97690.22
2023-05-02T12:05:33.956Z,97690.41
2023-05-02T12:07:37.954Z,97693.19
2023-05-02T12:09:51.444Z,97686.28
2023-05-02T12:11:54.810Z,97686.25
2023-05-02T12:13:57.531Z,97686.16
2023-05-02T12:16:00.581Z,97686.91
2023-05-02T12:18:04.876Z,97687.59
2023-05-02T12:20:09.960Z,97684.16
2023-05-02T12:22:13.478Z,97688.31
2023-05-02T12:24:16.376Z,97687.94
2023-05-02T12:26:20.260Z,97692.94
2023-05-02T12:28:23.912Z,97693.56
2023-05-02T12:30:27.148Z,97692.81
2023-05-02T12:32:31.501Z,97693.50
2023-05-02T12:34:37.429Z,97686.06
2023-05-02T12:36:44.959Z,97685.13
2023-05-02T12:38:52.329Z,97684.06
2023-05-02T12:40:57.674Z,97681.97
2023-05-02T12:43:04.497Z,97683.19
2023-05-02T12:45:18.100Z,97680.13
2023-05-02T12:47:22.529Z,97675.53
2023-05-02T12:49:25.331Z,97670.59
2023-05-02T12:51:31.408Z,97674.84
2023-05-02T12:53:41.578Z,97678.25
2023-05-02T12:55:44.446Z,97675.03
2023-05-02T12:57:47.590Z,97675.94
2023-05-02T12:59:53.770Z,97673.78
2023-05-02T13:01:57.256Z,97669.69
2023-05-02T13:03:59.925Z,97673.25
2023-05-02T13:06:02.637Z,97668.13
2023-05-02T13:08:07.115Z,97669.84
2023-05-02T13:10:11.130Z,97669.84
2023-05-02T13:12:13.712Z,97673.34
2023-05-02T13:14:16.300Z,97675.59
2023-05-02T13:16:18.980Z,97674.34
2023-05-02T13:18:24.371Z,97676.03
2023-05-02T13:20:27.151Z,97676.09
2023-05-02T13:22:29.908Z,97677.75
2023-05-02T13:24:33.881Z,97678.28
2023-05-02T13:26:36.448Z,97680.47
2023-05-02T13:28:38.996Z,97670.56
2023-05-02T13:30:42.008Z,97671.16
2023-05-02T13:32:44.716Z,97680.28
2023-05-02T13:34:47.312Z,97676.22
2023-05-02T13:36:49.858Z,97673.06
2023-05-02T13:39:09.894Z,97672.41
2023-05-02T13:41:14.179Z,97678.34
2023-05-02T13:43:16.868Z,97673.22
2023-05-02T13:45:19.650Z,97663.03
2023-05-02T13:47:22.731Z,97671.00
2023-05-02T13:49:25.686Z,97672.59
2023-05-02T13:51:28.337Z,97672.59
2023-05-02T13:53:30.924Z,97673.81
2023-05-02T13:55:33.478Z,97674.75
2023-05-02T13:57:37.375Z,97669.31
2023-05-02T13:59:39.954Z,97666.56
2023-05-02T14:01:42.555Z,97666.06
2023-05-02T14:03:45.422Z,97667.34
2023-05-02T14:05:48.082Z,97668.72
2023-05-02T14:07:50.628Z,97665.50
2023-05-02T14:09:53.164Z,97668.44
2023-05-02T14:11:56.565Z,97670.31
2023-05-02T14:14:00.943Z,97670.97
2023-05-02T14:16:03.823Z,97679.53
2023-05-02T14:18:06.469Z,97671.34
2023-05-02T14:20:10.537Z,97676.22
2023-05-02T14:22:13.294Z,97677.69
2023-05-02T14:24:16.475Z,97675.59
2023-05-02T14:26:20.413Z,97676.25
2023-05-02T14:28:23.375Z,97673.94
2023-05-02T14:30:27.415Z,97676.94
2023-05-02T14:32:30.033Z,97675.78
2023-05-02T14:34:32.652Z,97680.09
2023-05-02T14:36:35.298Z,97685.53
2023-05-02T14:38:37.893Z,97678.91
2023-05-02T14:40:40.634Z,97681.97
2023-05-02T14:42:43.679Z,97686.66
2023-05-02T14:44:46.268Z,97685.13
2023-05-02T14:46:51.357Z,97670.34
2023-05-02T14:48:53.954Z,97675.84
2023-05-02T14:50:56.552Z,97682.66
2023-05-02T14:52:59.106Z,97679.38
2023-05-02T14:55:01.852Z,97675.59
2023-05-02T14:57:04.891Z,97672.34
2023-05-02T14:59:07.484Z,97672.41
2023-05-02T15:01:16.651Z,97670.50
2023-05-02T15:03:20.855Z,97677.78
2023-05-02T15:05:23.647Z,97674.09
2023-05-02T15:07:26.841Z,97673.34
2023-05-02T15:09:30.142Z,97675.84
2023-05-02T15:11:32.937Z,97676.53
2023-05-02T15:13:35.493Z,97671.91
2023-05-02T15:15:38.170Z,97675.34
2023-05-02T15:17:40.735Z,97684.47
2023-05-02T15:19:44.741Z,97684.41
2023-05-02T15:21:47.313Z,97682.63
2023-05-02T15:23:49.917Z,97682.69
2023-05-02T15:25:52.566Z,97684.56
2023-05-02T15:27:55.100Z,97688.31
2023-05-02T15:29:58.182Z,97688.41
2023-05-02T15:32:00.819Z,97689.47
2023-05-02T15:34:03.704Z,97682.72
2023-05-02T15:36:08.520Z,97687.84
2023-05-02T15:38:11.091Z,97690.44
2023-05-02T15:40:15.323Z,97691.44
2023-05-02T15:42:17.876Z,97688.72
2023-05-02T15:44:20.542Z,97702.88
2023-05-02T15:46:23.180Z,97695.69
2023-05-02T15:48:28.908Z,97700.56
2023-05-02T15:50:31.871Z,97706.06
2023-05-02T15:52:35.795Z,97696.72
2023-05-02T15:54:39.277Z,97703.94
2023-05-02T15:56:41.843Z,97699.38
2023-05-02T15:58:44.424Z,97700.91
2023-05-02T16:00:47.540Z,97708.09
2023-05-02T16:02:50.200Z,97703.53
2023-05-02T16:04:52.790Z,97700.69
2023-05-02T16:06:55.547Z,97694.44
2023-05-02T16:09:00.515Z,97705.66
2023-05-02T16:11:04.246Z,97707.34
2023-05-02T16:13:06.944Z,97702.16
2023-05-02T16:15:10.121Z,97703.97
2023-05-02T16:17:12.658Z,97703.97
2023-05-02T16:19:15.263Z,97702.91
2023-05-02T16:21:17.813Z,97701.84
2023-05-02T16:23:22.067Z,97709.03
2023-05-02T16:25:27.034Z,97709.94
2023-05-02T16:27:29.681Z,97715.44
2023-05-02T16:29:35.167Z,97711.84
2023-05-02T16:31:37.838Z,97709.72
2023-05-02T16:33:40.608Z,97714.13
2023-05-02T16:35:43.218Z,97717.91
2023-05-02T16:37:45.809Z,97711.00
2023-05-02T16:39:48.494Z,97714.31
2023-05-02T16:41:52.415Z,97721.41
2023-05-02T16:43:55.141Z,97718.75
2023-05-02T16:46:02.341Z,97719.72
2023-05-02T16:48:05.302Z,97717.06
2023-05-02T16:50:09.294Z,97718.75
2023-05-02T16:52:11.963Z,97713.56
2023-05-02T16:54:14.515Z,97721.50
2023-05-02T16:56:17.081Z,97719.72
2023-05-02T16:58:21.609Z,97716.13
2023-05-02T17:00:24.397Z,97726.31
2023-05-02T17:02:27.085Z,97723.28
2023-05-02T17:04:30.058Z,97727.38
2023-05-02T17:06:32.700Z,97727.66
2023-05-02T17:08:35.381Z,97718.44
2023-05-02T17:10:38.159Z,97725.91
2023-05-02T17:12:40.736Z,97724.59
2023-05-02T17:14:44.635Z,97729.22
2023-05-02T17:16:47.298Z,97739.22
2023-05-02T17:18:49.867Z,97737.91
2023-05-02T17:20:52.831Z,97739.78
2023-05-02T17:22:55.859Z,97740.84
2023-05-02T17:24:58.657Z,97733.28
2023-05-02T17:27:02.814Z,97739.44
2023-05-02T17:29:05.358Z,97736.47
2023-05-02T17:31:09.613Z,97740.25
2023-05-02T17:33:12.263Z,97734.56
2023-05-02T17:35:16.313Z,97740.13
2023-05-02T17:37:18.879Z,97738.81
2023-05-02T17:39:21.436Z,97752.19
2023-05-02T17:41:24.001Z,97745.56
2023-05-02T17:43:26.571Z,97741.31
2023-05-02T17:45:29.843Z,97748.66
2023-05-02T17:47:33.759Z,97748.94
2023-05-02T17:49:37.096Z,97756.28
2023-05-02T17:51:39.739Z,97763.63
2023-05-02T17:53:42.596Z,97766.41
2023-05-02T17:55:45.240Z,97762.75
2023-05-02T17:57:48.538Z,97771.19
2023-05-02T17:59:53.671Z,97774.28
2023-05-02T18:01:56.386Z,97775.66
2023-05-02T18:04:00.920Z,97778.44
2023-05-02T18:06:03.679Z,97771.91
2023-05-02T18:08:07.207Z,97775.66
2023-05-02T18:10:09.860Z,97783.81
2023-05-02T18:12:12.415Z,97782.19
2023-05-02T18:14:14.980Z,97781.69
2023-05-02T18:16:17.684Z,97786.44
2023-05-02T18:18:20.379Z,97791.88
2023-05-02T18:20:24.288Z,97786.03
2023-05-02T18:22:28.124Z,97792.28
2023-05-02T18:24:31.985Z,97793.50
2023-05-02T18:26:34.552Z,97796.44
2023-05-02T18:28:37.089Z,97801.03
2023-05-02T18:30:40.352Z,97803.94
2023-05-02T18:32:42.982Z,97803.31
2023-05-02T18:34:45.717Z,97813.09
2023-05-02T18:36:49.616Z,97809.84
2023-05-02T18:38:52.449Z,97810.94
2023-05-02T18:40:55.022Z,97812.88
2023-05-02T18:42:57.586Z,97814.03
2023-05-02T18:45:00.532Z,97815.16
2023-05-02T18:47:03.469Z,97816.31
2023-05-02T18:49:08.938Z,97819.19
2023-05-02T18:51:11.501Z,97824.59
2023-05-02T18:53:15.498Z,97824.75
2023-05-02T18:55:18.328Z,97822.59
2023-05-02T18:57:21.532Z,97826.69
2023-05-02T18:59:24.107Z,97828.25
2023-05-02T19:01:26.750Z,97836.59
2023-05-02T19:03:30.452Z,97831.69
2023-05-02T19:05:34.708Z,97839.03
2023-05-02T19:07:38.457Z,97834.09
2023-05-02T19:09:42.692Z,97839.38
2023-05-02T19:11:45.351Z,97837.16
2023-05-02T19:13:50.897Z,97833.03
2023-05-02T19:15:53.639Z,97837.81
2023-05-02T19:17:56.455Z,97842.38
2023-05-02T19:19:59.205Z,97839.91
2023-05-02T19:22:01.736Z,97841.81
2023-05-02T19:24:04.748Z,97845.41
2023-05-02T19:26:13.009Z,97845.66
2023-05-02T19:28:16.839Z,97851.81
2023-05-02T19:30:21.519Z,97857.22
2023-05-02T19:32:25.057Z,97854.81
2023-05-02T19:34:28.172Z,97871.69
2023-05-02T19:36:31.122Z,97863.97
2023-05-02T19:38:34.190Z,97862.59
2023-05-02T19:40:36.765Z,97875.75
2023-05-02T19:42:40.761Z,97876.03
2023-05-02T19:44:43.299Z,97875.41
2023-05-02T19:46:46.163Z,97879.28
2023-05-02T19:48:48.765Z,97879.47
2023-05-02T19:50:51.404Z,97889.91
2023-05-02T19:52:53.973Z,97897.16
2023-05-02T19:54:56.601Z,97901.97
2023-05-02T19:56:59.215Z,97901.84
2023-05-02T19:59:03.253Z,97898.63
2023-05-02T20:01:05.867Z,97904.13
2023-05-02T20:03:08.746Z,97894.06
2023-05-02T20:05:11.470Z,97898.91
2023-05-02T20:07:14.135Z,97905.38
2023-05-02T20:09:17.197Z,97906.03
2023-05-02T20:11:19.890Z,97903.09
2023-05-02T20:13:22.520Z,97908.44
2023-05-02T20:15:30.034Z,97911.56
2023-05-02T20:17:32.671Z,97911.88
2023-05-02T20:19:35.317Z,97915.47
2023-05-02T20:21:40.239Z,97913.13
2023-05-02T20:23:43.558Z,97920.09
2023-05-02T20:25:46.399Z,97914.66
2023-05-02T20:27:49.031Z,97916.78
2023-05-02T20:29:51.856Z,97925.47
2023-05-02T20:31:56.649Z,97928.94
2023-05-02T20:34:00.305Z,97931.25
2023-05-02T20:36:02.954Z,97936.69
2023-05-02T20:38:05.532Z,97929.16
2023-05-02T20:40:09.909Z,97934.66
2023-05-02T20:42:12.537Z,97934.72
2023-05-02T20:44:16.971Z,97936.94
2023-05-02T20:46:20.742Z,97939.03
2023-05-02T20:48:24.761Z,97938.91
2023-05-02T20:50:27.348Z,97937.38
2023-05-02T20:52:30.104Z,97931.97
2023-05-02T20:54:32.679Z,97933.28
2023-05-02T20:56:35.252Z,97931.69
2023-05-02T20:58:37.830Z,97929.19
2023-05-02T21:00:41.085Z,97932.75
2023-05-02T21:02:43.705Z,97934.69
2023-05-02T21:04:47.690Z,97930.69
2023-05-02T21:06:50.386Z,97935.31
2023-05-02T21:08:55.099Z,97939.25
2023-05-02T21:10:57.675Z,97929.84
2023-05-02T21:13:00.267Z,97934.41
2023-05-02T21:15:03.079Z,97928.41
2023-05-02T21:17:05.749Z,97934.41
2023-05-02T21:19:08.438Z,97928.53
2023-05-02T21:21:12.415Z,97930.53
2023-05-02T21:23:14.971Z,97927.09
2023-05-02T21:25:17.626Z,97929.50
2023-05-02T21:27:20.299Z,97928.75
2023-05-02T21:29:22.930Z,97924.53
2023-05-02T21:31:25.520Z,97928.22
2023-05-02T21:33:28.114Z,97930.84
2023-05-02T21:35:33.946Z,97931.66
2023-05-02T21:37:37.891Z,97932.44
2023-05-02T21:39:40.597Z,97939.13
2023-05-02T21:41:43.203Z,97931.47
2023-05-02T21:43:45.914Z,97926.25
2023-05-02T21:45:49.669Z,97927.22
2023-05-02T21:47:52.749Z,97925.56
2023-05-02T21:49:56.804Z,97921.19
2023-05-02T21:51:59.409Z,97926.41
2023-05-02T21:54:03.476Z,97919.25
2023-05-02T21:56:07.992Z,97926.19
2023-05-02T21:58:12.858Z,97926.31
2023-05-02T22:00:16.140Z,97926.41
2023-05-02T22:02:18.754Z,97930.31
2023-05-02T22:04:21.361Z,97934.94
2023-05-02T22:06:23.943Z,97927.22
2023-05-02T22:08:27.245Z,97937.03
2023-05-02T22:10:31.359Z,97931.06
2023-05-02T22:12:33.906Z,97938.13
2023-05-02T22:14:44.605Z,97934.72
2023-05-02T22:16:48.167Z,97935.53
2023-05-02T22:18:50.755Z,97943.47
2023-05-02T22:20:54.091Z,97939.84
2023-05-02T22:22:56.676Z,97941.75
2023-05-02T22:24:59.264Z,97947.06
2023-05-02T22:27:03.211Z,97947.06
2023-05-02T22:29:06.752Z,97953.69
2023-05-02T22:31:09.343Z,97946.06
2023-05-02T22:33:12.808Z,97947.16
2023-05-02T22:35:15.728Z,97942.88
2023-05-02T22:37:18.294Z,97938.66
2023-05-02T22:39:21.564Z,97942.38
2023-05-02T22:41:24.177Z,97944.53
2023-05-02T22:43:28.148Z,97944.72
2023-05-02T22:45:30.734Z,97943.31
2023-05-02T22:47:33.423Z,97943.94
2023-05-02T22:49:36.057Z,97949.94
2023-05-02T22:51:40.109Z,97943.03
2023-05-02T22:53:42.893Z,97943.19
2023-05-02T22:55:45.454Z,97950.69
2023-05-02T22:57:47.983Z,97944.09
2023-05-02T22:59:51.973Z,97950.19
2023-05-02T23:01:54.562Z,97952.09
2023-05-02T23:03:57.319Z,97953.84
2023-05-02T23:06:00.148Z,97952.13
2023-05-02T23:08:02.745Z,97950.41
2023-05-02T23:10:06.356Z,97947.03
2023-05-02T23:12:08.967Z,97947.84
2023-05-02T23:14:11.528Z,97943.59
2023-05-02T23:16:15.550Z,97945.34
2023-05-02T23:18:18.438Z,97949.56
2023-05-02T23:20:23.065Z,97947.69
2023-05-02T23:22:26.002Z,97947.03
2023-05-02T23:24:29.070Z,97947.13
2023-05-02T23:26:31.615Z,97946.25
2023-05-02T23:28:34.187Z,97949.69
2023-05-02T23:30:39.239Z,97948.19
2023-05-02T23:32:43.202Z,97950.81
2023-05-02T23:34:46.100Z,97947.34
2023-05-02T23:36:49.662Z,97949.69
2023-05-02T23:38:52.311Z,97945.22
2023-05-02T23:40:55.259Z,97952.44
2023-05-02T23:42:58.058Z,97947.69
2023-05-02T23:45:00.719Z,97950.34
2023-05-02T23:47:03.327Z,97947.34
2023-05-02T23:49:07.324Z,97955.47
2023-05-02T23:51:09.867Z,97949.00
2023-05-02T23:53:12.443Z,97952.59
2023-05-02T23:55:14.985Z,97943.91
2023-05-02T23:57:17.556Z,97947.28
2023-05-02T23:59:20.173Z,97949.81
